Yang Li Hu — BOGE — position and weather

sailwx.info

Track history (hours):
 
Tides and Currents Weather Stations Pressure Air Temp Water Temp Dewpoint Dewpoint Depression Visibility Wind Speed Wind Dir Waves Ship Positions

Yang Li Hu

Last reported at 2017-Oct-17 12:38 UTC. Time now 2017-Oct-18 20:44 UTC.
Position N 36°01' W 005°12'.

Length 244 m; draft 9 m.

Type: Tanker. MMSI: 413975000.

Date/timePositionNaut miles runAvg speedWind from/ knotsBaromVisibWave heightAir tempDewpointWater temp
2017-Oct-17 12:38N 36°01' W 005°12'111.9
2017-Oct-17 12:31N 36°01' W 005°14'611.9
2017-Oct-17 12:01N 35°59' W 005°21'611.6
2017-Oct-17 11:31N 35°57' W 005°28'289 8.9
2017-Oct-16 03:14N 38°57' W 010°12'313.2
2017-Oct-16 03:01N 38°60' W 010°12'713.2
2017-Oct-16 02:30N 39°06' W 010°12'9912.1
2017-Oct-15 18:18N 40°45' W 010°12'55012.5
2017-Oct-13 22:14N 49°11' W 005°05'312.2
2017-Oct-13 22:00N 49°12' W 005°01'612.1
2017-Oct-13 21:29N 49°15' W 004°52'712.4
2017-Oct-13 20:55N 49°18' W 004°43'512.6
2017-Oct-13 20:30N 49°21' W 004°37'612.7
2017-Oct-13 20:00N 49°25' W 004°28'912.9
2017-Oct-13 19:20N 49°29' W 004°17'713.4
2017-Oct-13 18:49N 49°33' W 004°08'513.5
2017-Oct-13 18:25N 49°36' W 004°01'613.5
2017-Oct-13 17:59N 49°39' W 003°53'713.7
2017-Oct-13 17:29N 49°42' W 003°44'813.7
2017-Oct-13 16:53N 49°46' W 003°33'513.5
2017-Oct-13 16:30N 49°48' W 003°26'713.2
2017-Oct-13 16:00N 49°51' W 003°17'612.9
2017-Oct-13 15:30N 49°55' W 003°08'612.7
2017-Oct-13 15:00N 49°58' W 002°60'612.2
2017-Oct-13 14:30N 49°60' W 002°51'811.8
2017-Oct-13 13:48N 50°02' W 002°38'3011.6
2017-Oct-13 11:11N 50°10' W 001°53'212.5
2017-Oct-13 11:00N 50°11' W 001°49'612.8
2017-Oct-13 10:30N 50°13' W 001°40'713.4
2017-Oct-13 10:00N 50°14' W 001°30'714.0
2017-Oct-13 09:28N 50°16' W 001°18'3314.9
2017-Oct-13 07:16N 50°25' W 000°29'414.3
2017-Oct-13 07:00N 50°26' W 000°23'713.7
2017-Oct-13 06:31N 50°28' W 000°13'713.4
2017-Oct-13 06:00N 50°30' W 000°03'713.2
2017-Oct-13 05:30N 50°32' E 000°07'612.9
2017-Oct-13 05:00N 50°34' E 000°17'612.4
2017-Oct-13 04:31N 50°35' E 000°26'612.2
2017-Oct-13 04:00N 50°37' E 000°35'612.0
2017-Oct-13 03:31N 50°40' E 000°44'611.9
2017-Oct-13 03:01N 50°43' E 000°51'611.9
2017-Oct-13 02:30N 50°47' E 000°59'712.3
2017-Oct-13 01:58N 50°50' E 001°08'613.0
2017-Oct-13 01:29N 50°54' E 001°16'713.9
2017-Oct-13 01:01N 50°59' E 001°24'713.6
2017-Oct-13 00:30N 51°03' E 001°32'714.5
2017-Oct-13 00:00N 51°09' E 001°40'714.7
2017-Oct-12 23:30N 51°15' E 001°46'714.0
2017-Oct-12 23:00N 51°20' E 001°53'713.3
2017-Oct-12 22:30N 51°26' E 001°59'612.7
2017-Oct-12 22:00N 51°31' E 002°05'612.2
2017-Oct-12 21:30N 51°36' E 002°11'1011.7
2017-Oct-12 20:38N 51°44' E 002°22'4910.2
2017-Oct-12 15:49N 52°03' E 003°34'411.7
2017-Oct-12 15:30N 52°03' E 003°40'611.8
2017-Oct-12 15:00N 52°03' E 003°50'3 5.1
2017-Oct-12 14:30N 52°02' E 003°54'4 8.1
2017-Oct-12 14:00N 52°01' E 003°60'510.4
2017-Oct-12 13:30N 51°58' E 004°07'4 7.5
2017-Oct-12 13:00N 51°56' E 004°12'1 1.3
2017-Oct-12 12:26N 51°55' E 004°13'0 0.0
2017-Oct-12 11:53N 51°55' E 004°13'0 0.0
2017-Oct-12 11:17N 51°55' E 004°13'0 0.0
2017-Oct-12 10:59N 51°55' E 004°13'0 0.0
2017-Oct-12 10:26N 51°55' E 004°13'0 0.0
2017-Oct-12 09:59N 51°55' E 004°13'0 0.0
2017-Oct-12 09:29N 51°55' E 004°13'0 0.0
2017-Oct-12 08:59N 51°55' E 004°13'0 0.0
2017-Oct-12 08:26N 51°55' E 004°13'0 0.0
2017-Oct-12 07:59N 51°55' E 004°13'0 0.0
2017-Oct-12 07:20N 51°55' E 004°13'0 0.0
2017-Oct-12 06:59N 51°55' E 004°13'0 0.0
2017-Oct-12 06:23N 51°55' E 004°13'0 0.0
2017-Oct-12 05:59N 51°55' E 004°13'0 0.0
2017-Oct-12 05:29N 51°55' E 004°13'0 0.0
2017-Oct-12 04:53N 51°55' E 004°13'0 0.0
2017-Oct-12 04:29N 51°55' E 004°13'0 0.0
2017-Oct-12 03:59N 51°55' E 004°13'0 0.0
2017-Oct-12 03:23N 51°55' E 004°13'0 0.0
2017-Oct-12 02:56N 51°55' E 004°13'0 0.0
2017-Oct-12 02:29N 51°55' E 004°13'0 0.0
2017-Oct-12 01:53N 51°55' E 004°13'0 0.0
2017-Oct-12 01:29N 51°55' E 004°13'0 0.0
2017-Oct-12 00:53N 51°55' E 004°13'0 0.0
2017-Oct-12 00:29N 51°55' E 004°13'0 0.0
2017-Oct-11 23:59N 51°55' E 004°13'0 0.0
2017-Oct-11 23:29N 51°55' E 004°13'0 0.0
2017-Oct-11 22:59N 51°55' E 004°13'0 0.0
2017-Oct-11 22:29N 51°55' E 004°13'0 0.0
2017-Oct-11 21:59N 51°55' E 004°13'0 0.0
2017-Oct-11 21:29N 51°55' E 004°13'0 0.0
2017-Oct-11 20:59N 51°55' E 004°13'0 0.0
2017-Oct-11 20:29N 51°55' E 004°13'0 0.0
2017-Oct-11 19:56N 51°55' E 004°13'0 0.0
2017-Oct-11 19:26N 51°55' E 004°13'0 0.0
2017-Oct-11 18:59N 51°55' E 004°13'0 0.0
2017-Oct-11 18:29N 51°55' E 004°13'0 0.0
2017-Oct-11 17:59N 51°55' E 004°13'0 0.0
2017-Oct-11 17:29N 51°55' E 004°13'0 0.0
2017-Oct-11 16:59N 51°55' E 004°13'0 0.0
2017-Oct-10 23:50N 51°55' E 004°13'0 0.0
2017-Oct-10 23:29N 51°55' E 004°13'0 0.0
2017-Oct-10 22:59N 51°55' E 004°13'0 0.0
2017-Oct-10 22:29N 51°55' E 004°13'0 0.0
2017-Oct-10 21:56N 51°55' E 004°13'0 0.0
2017-Oct-10 21:26N 51°55' E 004°13'0 0.0
2017-Oct-10 20:47N 51°55' E 004°13'0 0.0
2017-Oct-10 20:17N 51°55' E 004°13'0 0.0
2017-Oct-10 19:59N 51°55' E 004°13'0 0.0
2017-Oct-10 19:29N 51°55' E 004°13'0 0.0
2017-Oct-10 18:59N 51°55' E 004°13'0 0.0
2017-Oct-10 18:29N 51°55' E 004°13'0 0.0
2017-Oct-10 17:56N 51°55' E 004°13'0 0.0
2017-Oct-10 17:29N 51°55' E 004°13'0 0.0
2017-Oct-10 16:59N 51°55' E 004°13'0 0.0
2017-Oct-10 16:29N 51°55' E 004°13'0 0.0
2017-Oct-10 15:59N 51°55' E 004°13'0 0.0
2017-Oct-10 15:29N 51°55' E 004°13'0 0.0
2017-Oct-10 14:59N 51°55' E 004°13'0 0.0
2017-Oct-10 13:59N 51°55' E 004°13'0 0.0
2017-Oct-10 13:29N 51°55' E 004°13'0 0.0
2017-Oct-10 12:59N 51°55' E 004°13'0 0.0
2017-Oct-10 12:26N 51°55' E 004°13'0 0.0
2017-Oct-10 11:59N 51°55' E 004°13'0 0.0
2017-Oct-10 11:29N 51°55' E 004°13'0 0.0
2017-Oct-10 10:59N 51°55' E 004°13'0 0.0
2017-Oct-10 10:29N 51°55' E 004°13'0 0.0
2017-Oct-10 09:59N 51°55' E 004°13'0 0.0
2017-Oct-10 09:23N 51°55' E 004°13'0 0.0
2017-Oct-10 08:38N 51°55' E 004°13'0 0.0
2017-Oct-10 08:17N 51°55' E 004°13'0 0.0
2017-Oct-10 07:59N 51°55' E 004°13'0 0.0
2017-Oct-10 07:26N 51°55' E 004°13'0 0.0
2017-Oct-10 06:59N 51°55' E 004°13'0 0.0
2017-Oct-10 06:29N 51°55' E 004°13'0 0.0
2017-Oct-10 05:50N 51°55' E 004°13'0 0.0
2017-Oct-10 05:29N 51°55' E 004°13'0 0.0
2017-Oct-10 04:59N 51°55' E 004°13'0 0.0
2017-Oct-10 04:29N 51°55' E 004°13'0 0.0
2017-Oct-10 03:59N 51°55' E 004°13'0 0.0
2017-Oct-10 03:26N 51°55' E 004°13'0 0.0
2017-Oct-10 02:59N 51°55' E 004°13'0 0.0
2017-Oct-10 02:29N 51°55' E 004°13'0 0.0
2017-Oct-10 01:53N 51°55' E 004°13'0 0.0
2017-Oct-10 01:23N 51°55' E 004°13'0 0.0
2017-Oct-10 00:59N 51°55' E 004°13'0 0.6
2017-Oct-10 00:30N 51°55' E 004°12'0 0.2
2017-Oct-10 00:01N 51°55' E 004°12'2 4.3
2017-Oct-09 23:30N 51°57' E 004°10'3 6.0
2017-Oct-09 23:00N 51°58' E 004°06'1 2.8
2017-Oct-09 22:30N 51°57' E 004°05'0 0.0
2017-Oct-09 21:55N 51°57' E 004°05'0 0.0
2017-Oct-09 21:25N 51°57' E 004°05'0 0.0
2017-Oct-09 20:58N 51°57' E 004°05'0 0.0
2017-Oct-09 20:25N 51°57' E 004°05'0 0.0
2017-Oct-09 19:58N 51°57' E 004°05'0 0.0
2017-Oct-09 19:28N 51°57' E 004°05'0 0.0
2017-Oct-09 18:58N 51°57' E 004°05'0 0.0
2017-Oct-09 18:28N 51°57' E 004°05'0 0.0
2017-Oct-09 17:55N 51°57' E 004°05'0 0.0
2017-Oct-09 17:25N 51°57' E 004°05'0 0.0
2017-Oct-09 16:58N 51°57' E 004°05'0 0.0
2017-Oct-09 16:25N 51°57' E 004°05'0 0.0
2017-Oct-09 15:58N 51°57' E 004°05'0 0.0
2017-Oct-09 15:19N 51°57' E 004°05'0 0.0
2017-Oct-09 14:58N 51°57' E 004°05'0 0.0
2017-Oct-09 14:28N 51°57' E 004°05'0 0.0
2017-Oct-09 13:52N 51°57' E 004°05'0 0.0
2017-Oct-09 13:28N 51°57' E 004°05'0 0.0
2017-Oct-09 12:58N 51°57' E 004°05'0 0.0
2017-Oct-09 12:25N 51°57' E 004°05'0 0.0
2017-Oct-09 11:55N 51°57' E 004°05'0 0.0
2017-Oct-09 11:22N 51°57' E 004°05'0 0.0
2017-Oct-09 10:55N 51°57' E 004°05'0 0.0
2017-Oct-09 10:25N 51°57' E 004°05'0 0.0
2017-Oct-09 09:55N 51°57' E 004°05'0 0.0
2017-Oct-09 09:28N 51°57' E 004°05'0 0.0
2017-Oct-09 08:58N 51°57' E 004°05'0 0.0
2017-Oct-09 08:25N 51°57' E 004°05'0 0.0
2017-Oct-09 07:58N 51°57' E 004°05'0 0.0
2017-Oct-09 07:25N 51°57' E 004°05'0 0.0
2017-Oct-09 06:58N 51°57' E 004°05'0 0.0
2017-Oct-09 06:28N 51°57' E 004°05'0 0.0
2017-Oct-09 05:55N 51°57' E 004°05'0 0.0
2017-Oct-09 05:22N 51°57' E 004°05'0 0.0
2017-Oct-09 04:58N 51°57' E 004°05'0 0.0
2017-Oct-09 04:28N 51°57' E 004°05'0 0.0
2017-Oct-09 03:58N 51°57' E 004°05'0 0.0
2017-Oct-09 03:25N 51°57' E 004°05'0 0.0
2017-Oct-09 02:58N 51°57' E 004°05'0 0.0
2017-Oct-09 02:28N 51°57' E 004°05'0 0.0
2017-Oct-09 01:58N 51°57' E 004°05'0 0.0
2017-Oct-09 01:28N 51°57' E 004°05'0 0.0
2017-Oct-09 00:55N 51°57' E 004°05'0 0.0
2017-Oct-09 00:28N 51°57' E 004°05'0 0.0
2017-Oct-08 23:58N 51°57' E 004°05'0 0.0
2017-Oct-08 23:25N 51°57' E 004°05'0 0.0
2017-Oct-08 22:55N 51°57' E 004°05'0 0.0
2017-Oct-08 22:28N 51°57' E 004°05'0 0.0
2017-Oct-08 21:58N 51°57' E 004°05'0 0.0
2017-Oct-08 21:28N 51°57' E 004°05'0 0.0
2017-Oct-08 20:58N 51°57' E 004°05'0 0.0
2017-Oct-08 20:25N 51°57' E 004°05'0 0.0
2017-Oct-08 19:58N 51°57' E 004°05'0 0.0
2017-Oct-08 19:28N 51°57' E 004°05'0 0.0
2017-Oct-08 18:58N 51°57' E 004°05'0 0.0
2017-Oct-08 18:28N 51°57' E 004°05'0 0.0
2017-Oct-08 17:58N 51°57' E 004°05'0 0.0
2017-Oct-08 17:28N 51°57' E 004°05'0 0.0
2017-Oct-08 16:58N 51°57' E 004°05'0 0.0
2017-Oct-08 16:28N 51°57' E 004°05'0 0.0
2017-Oct-08 15:55N 51°57' E 004°05'0 0.0
2017-Oct-08 15:28N 51°57' E 004°05'0 0.0
2017-Oct-08 14:58N 51°57' E 004°05'0 0.0
2017-Oct-08 14:28N 51°57' E 004°05'0 0.0
2017-Oct-08 13:58N 51°57' E 004°05'0 0.0
2017-Oct-08 13:28N 51°57' E 004°05'0 0.0
2017-Oct-08 12:58N 51°57' E 004°05'0 0.0
2017-Oct-08 12:28N 51°57' E 004°05'0 0.0
2017-Oct-08 11:55N 51°57' E 004°05'0 0.0
2017-Oct-08 11:28N 51°57' E 004°05'0 0.0
2017-Oct-08 10:55N 51°57' E 004°05'0 0.0
2017-Oct-08 10:25N 51°57' E 004°05'0 0.0
2017-Oct-08 09:55N 51°57' E 004°05'0 0.0
2017-Oct-08 09:25N 51°57' E 004°05'0 0.0
2017-Oct-08 08:55N 51°57' E 004°05'0 0.0
2017-Oct-08 08:25N 51°57' E 004°05'0 0.0
2017-Oct-08 07:58N 51°57' E 004°05'0 0.0
2017-Oct-08 07:28N 51°57' E 004°05'0 0.0
2017-Oct-08 06:58N 51°57' E 004°05'0 0.0
2017-Oct-08 06:28N 51°57' E 004°05'0 0.0
2017-Oct-08 05:55N 51°57' E 004°05'0 0.6
2017-Oct-08 05:30N 51°57' E 004°05'1 2.9
2017-Oct-08 05:00N 51°59' E 004°05'4 8.5
2017-Oct-08 04:30N 52°00' E 003°59'510.2
2017-Oct-08 04:00N 52°01' E 003°51'4 7.3
2017-Oct-08 03:30N 52°01' E 003°45'4 6.9
2017-Oct-08 02:59N 51°59' E 003°40'52 9.1
2017-Oct-07 21:14N 51°36' E 002°25'4 9.1
2017-Oct-07 20:49N 51°33' E 002°20'3 9.2
2017-Oct-07 20:29N 51°31' E 002°16'5 9.0
2017-Oct-07 19:57N 51°27' E 002°12'5 9.6
2017-Oct-07 19:29N 51°23' E 002°11'510.1
2017-Oct-07 19:00N 51°18' E 002°09'510.2
2017-Oct-07 18:30N 51°14' E 002°04'510.6
2017-Oct-07 18:00N 51°11' E 001°57'511.0
2017-Oct-07 17:30N 51°09' E 001°49'611.5
2017-Oct-07 17:00N 51°05' E 001°42'612.0
2017-Oct-07 16:30N 51°01' E 001°35'712.5
2017-Oct-07 15:59N 50°56' E 001°28'  
Track history (hours):
 
Tides and Currents Weather Stations Pressure Air Temp Water Temp Dewpoint Dewpoint Depression Visibility Wind Speed Wind Dir Waves Ship Positions

Yang Li Hu

Last reported at 2017-Oct-17 12:38 UTC. Time now 2017-Oct-18 20:44 UTC.
Position N 36°01' W 005°12'.

Length 244 m; draft 9 m.

Type: Tanker. MMSI: 413975000.

Date/timePositionNaut miles runAvg speedWind from/ knotsBaromVisibWave heightAir tempDewpointWater temp
2017-Oct-17 12:38N 36°01' W 005°12'111.9
2017-Oct-17 12:31N 36°01' W 005°14'611.9
2017-Oct-17 12:01N 35°59' W 005°21'611.6
2017-Oct-17 11:31N 35°57' W 005°28'289 8.9
2017-Oct-16 03:14N 38°57' W 010°12'313.2
2017-Oct-16 03:01N 38°60' W 010°12'713.2
2017-Oct-16 02:30N 39°06' W 010°12'9912.1
2017-Oct-15 18:18N 40°45' W 010°12'55012.5
2017-Oct-13 22:14N 49°11' W 005°05'312.2
2017-Oct-13 22:00N 49°12' W 005°01'612.1
2017-Oct-13 21:29N 49°15' W 004°52'712.4
2017-Oct-13 20:55N 49°18' W 004°43'512.6
2017-Oct-13 20:30N 49°21' W 004°37'612.7
2017-Oct-13 20:00N 49°25' W 004°28'912.9
2017-Oct-13 19:20N 49°29' W 004°17'713.4
2017-Oct-13 18:49N 49°33' W 004°08'513.5
2017-Oct-13 18:25N 49°36' W 004°01'613.5
2017-Oct-13 17:59N 49°39' W 003°53'713.7
2017-Oct-13 17:29N 49°42' W 003°44'813.7
2017-Oct-13 16:53N 49°46' W 003°33'513.5
2017-Oct-13 16:30N 49°48' W 003°26'713.2
2017-Oct-13 16:00N 49°51' W 003°17'612.9
2017-Oct-13 15:30N 49°55' W 003°08'612.7
2017-Oct-13 15:00N 49°58' W 002°60'612.2
2017-Oct-13 14:30N 49°60' W 002°51'811.8
2017-Oct-13 13:48N 50°02' W 002°38'3011.6
2017-Oct-13 11:11N 50°10' W 001°53'212.5
2017-Oct-13 11:00N 50°11' W 001°49'612.8
2017-Oct-13 10:30N 50°13' W 001°40'713.4
2017-Oct-13 10:00N 50°14' W 001°30'714.0
2017-Oct-13 09:28N 50°16' W 001°18'3314.9
2017-Oct-13 07:16N 50°25' W 000°29'414.3
2017-Oct-13 07:00N 50°26' W 000°23'713.7
2017-Oct-13 06:31N 50°28' W 000°13'713.4
2017-Oct-13 06:00N 50°30' W 000°03'713.2
2017-Oct-13 05:30N 50°32' E 000°07'612.9
2017-Oct-13 05:00N 50°34' E 000°17'612.4
2017-Oct-13 04:31N 50°35' E 000°26'612.2
2017-Oct-13 04:00N 50°37' E 000°35'612.0
2017-Oct-13 03:31N 50°40' E 000°44'611.9
2017-Oct-13 03:01N 50°43' E 000°51'611.9
2017-Oct-13 02:30N 50°47' E 000°59'712.3
2017-Oct-13 01:58N 50°50' E 001°08'613.0
2017-Oct-13 01:29N 50°54' E 001°16'713.9
2017-Oct-13 01:01N 50°59' E 001°24'713.6
2017-Oct-13 00:30N 51°03' E 001°32'714.5
2017-Oct-13 00:00N 51°09' E 001°40'714.7
2017-Oct-12 23:30N 51°15' E 001°46'714.0
2017-Oct-12 23:00N 51°20' E 001°53'713.3
2017-Oct-12 22:30N 51°26' E 001°59'612.7
2017-Oct-12 22:00N 51°31' E 002°05'612.2
2017-Oct-12 21:30N 51°36' E 002°11'1011.7
2017-Oct-12 20:38N 51°44' E 002°22'4910.2
2017-Oct-12 15:49N 52°03' E 003°34'411.7
2017-Oct-12 15:30N 52°03' E 003°40'611.8
2017-Oct-12 15:00N 52°03' E 003°50'3 5.1
2017-Oct-12 14:30N 52°02' E 003°54'4 8.1
2017-Oct-12 14:00N 52°01' E 003°60'510.4
2017-Oct-12 13:30N 51°58' E 004°07'4 7.5
2017-Oct-12 13:00N 51°56' E 004°12'1 1.3
2017-Oct-12 12:26N 51°55' E 004°13'0 0.0
2017-Oct-12 11:53N 51°55' E 004°13'0 0.0
2017-Oct-12 11:17N 51°55' E 004°13'0 0.0
2017-Oct-12 10:59N 51°55' E 004°13'0 0.0
2017-Oct-12 10:26N 51°55' E 004°13'0 0.0
2017-Oct-12 09:59N 51°55' E 004°13'0 0.0
2017-Oct-12 09:29N 51°55' E 004°13'0 0.0
2017-Oct-12 08:59N 51°55' E 004°13'0 0.0
2017-Oct-12 08:26N 51°55' E 004°13'0 0.0
2017-Oct-12 07:59N 51°55' E 004°13'0 0.0
2017-Oct-12 07:20N 51°55' E 004°13'0 0.0
2017-Oct-12 06:59N 51°55' E 004°13'0 0.0
2017-Oct-12 06:23N 51°55' E 004°13'0 0.0
2017-Oct-12 05:59N 51°55' E 004°13'0 0.0
2017-Oct-12 05:29N 51°55' E 004°13'0 0.0
2017-Oct-12 04:53N 51°55' E 004°13'0 0.0
2017-Oct-12 04:29N 51°55' E 004°13'0 0.0
2017-Oct-12 03:59N 51°55' E 004°13'0 0.0
2017-Oct-12 03:23N 51°55' E 004°13'0 0.0
2017-Oct-12 02:56N 51°55' E 004°13'0 0.0
2017-Oct-12 02:29N 51°55' E 004°13'0 0.0
2017-Oct-12 01:53N 51°55' E 004°13'0 0.0
2017-Oct-12 01:29N 51°55' E 004°13'0 0.0
2017-Oct-12 00:53N 51°55' E 004°13'0 0.0
2017-Oct-12 00:29N 51°55' E 004°13'0 0.0
2017-Oct-11 23:59N 51°55' E 004°13'0 0.0
2017-Oct-11 23:29N 51°55' E 004°13'0 0.0
2017-Oct-11 22:59N 51°55' E 004°13'0 0.0
2017-Oct-11 22:29N 51°55' E 004°13'0 0.0
2017-Oct-11 21:59N 51°55' E 004°13'0 0.0
2017-Oct-11 21:29N 51°55' E 004°13'0 0.0
2017-Oct-11 20:59N 51°55' E 004°13'0 0.0
2017-Oct-11 20:29N 51°55' E 004°13'0 0.0
2017-Oct-11 19:56N 51°55' E 004°13'0 0.0
2017-Oct-11 19:26N 51°55' E 004°13'0 0.0
2017-Oct-11 18:59N 51°55' E 004°13'0 0.0
2017-Oct-11 18:29N 51°55' E 004°13'0 0.0
2017-Oct-11 17:59N 51°55' E 004°13'0 0.0
2017-Oct-11 17:29N 51°55' E 004°13'0 0.0
2017-Oct-11 16:59N 51°55' E 004°13'0 0.0
2017-Oct-10 23:50N 51°55' E 004°13'0 0.0
2017-Oct-10 23:29N 51°55' E 004°13'0 0.0
2017-Oct-10 22:59N 51°55' E 004°13'0 0.0
2017-Oct-10 22:29N 51°55' E 004°13'0 0.0
2017-Oct-10 21:56N 51°55' E 004°13'0 0.0
2017-Oct-10 21:26N 51°55' E 004°13'0 0.0
2017-Oct-10 20:47N 51°55' E 004°13'0 0.0
2017-Oct-10 20:17N 51°55' E 004°13'0 0.0
2017-Oct-10 19:59N 51°55' E 004°13'0 0.0
2017-Oct-10 19:29N 51°55' E 004°13'0 0.0
2017-Oct-10 18:59N 51°55' E 004°13'0 0.0
2017-Oct-10 18:29N 51°55' E 004°13'0 0.0
2017-Oct-10 17:56N 51°55' E 004°13'0 0.0
2017-Oct-10 17:29N 51°55' E 004°13'0 0.0
2017-Oct-10 16:59N 51°55' E 004°13'0 0.0
2017-Oct-10 16:29N 51°55' E 004°13'0 0.0
2017-Oct-10 15:59N 51°55' E 004°13'0 0.0
2017-Oct-10 15:29N 51°55' E 004°13'0 0.0
2017-Oct-10 14:59N 51°55' E 004°13'0 0.0
2017-Oct-10 13:59N 51°55' E 004°13'0 0.0
2017-Oct-10 13:29N 51°55' E 004°13'0 0.0
2017-Oct-10 12:59N 51°55' E 004°13'0 0.0
2017-Oct-10 12:26N 51°55' E 004°13'0 0.0
2017-Oct-10 11:59N 51°55' E 004°13'0 0.0
2017-Oct-10 11:29N 51°55' E 004°13'0 0.0
2017-Oct-10 10:59N 51°55' E 004°13'0 0.0
2017-Oct-10 10:29N 51°55' E 004°13'0 0.0
2017-Oct-10 09:59N 51°55' E 004°13'0 0.0
2017-Oct-10 09:23N 51°55' E 004°13'0 0.0
2017-Oct-10 08:38N 51°55' E 004°13'0 0.0
2017-Oct-10 08:17N 51°55' E 004°13'0 0.0
2017-Oct-10 07:59N 51°55' E 004°13'0 0.0
2017-Oct-10 07:26N 51°55' E 004°13'0 0.0
2017-Oct-10 06:59N 51°55' E 004°13'0 0.0
2017-Oct-10 06:29N 51°55' E 004°13'0 0.0
2017-Oct-10 05:50N 51°55' E 004°13'0 0.0
2017-Oct-10 05:29N 51°55' E 004°13'0 0.0
2017-Oct-10 04:59N 51°55' E 004°13'0 0.0
2017-Oct-10 04:29N 51°55' E 004°13'0 0.0
2017-Oct-10 03:59N 51°55' E 004°13'0 0.0
2017-Oct-10 03:26N 51°55' E 004°13'0 0.0
2017-Oct-10 02:59N 51°55' E 004°13'0 0.0
2017-Oct-10 02:29N 51°55' E 004°13'0 0.0
2017-Oct-10 01:53N 51°55' E 004°13'0 0.0
2017-Oct-10 01:23N 51°55' E 004°13'0 0.0
2017-Oct-10 00:59N 51°55' E 004°13'0 0.6
2017-Oct-10 00:30N 51°55' E 004°12'0 0.2
2017-Oct-10 00:01N 51°55' E 004°12'2 4.3
2017-Oct-09 23:30N 51°57' E 004°10'3 6.0
2017-Oct-09 23:00N 51°58' E 004°06'1 2.8
2017-Oct-09 22:30N 51°57' E 004°05'0 0.0
2017-Oct-09 21:55N 51°57' E 004°05'0 0.0
2017-Oct-09 21:25N 51°57' E 004°05'0 0.0
2017-Oct-09 20:58N 51°57' E 004°05'0 0.0
2017-Oct-09 20:25N 51°57' E 004°05'0 0.0
2017-Oct-09 19:58N 51°57' E 004°05'0 0.0
2017-Oct-09 19:28N 51°57' E 004°05'0 0.0
2017-Oct-09 18:58N 51°57' E 004°05'0 0.0
2017-Oct-09 18:28N 51°57' E 004°05'0 0.0
2017-Oct-09 17:55N 51°57' E 004°05'0 0.0
2017-Oct-09 17:25N 51°57' E 004°05'0 0.0
2017-Oct-09 16:58N 51°57' E 004°05'0 0.0
2017-Oct-09 16:25N 51°57' E 004°05'0 0.0
2017-Oct-09 15:58N 51°57' E 004°05'0 0.0
2017-Oct-09 15:19N 51°57' E 004°05'0 0.0
2017-Oct-09 14:58N 51°57' E 004°05'0 0.0
2017-Oct-09 14:28N 51°57' E 004°05'0 0.0
2017-Oct-09 13:52N 51°57' E 004°05'0 0.0
2017-Oct-09 13:28N 51°57' E 004°05'0 0.0
2017-Oct-09 12:58N 51°57' E 004°05'0 0.0
2017-Oct-09 12:25N 51°57' E 004°05'0 0.0
2017-Oct-09 11:55N 51°57' E 004°05'0 0.0
2017-Oct-09 11:22N 51°57' E 004°05'0 0.0
2017-Oct-09 10:55N 51°57' E 004°05'0 0.0
2017-Oct-09 10:25N 51°57' E 004°05'0 0.0
2017-Oct-09 09:55N 51°57' E 004°05'0 0.0
2017-Oct-09 09:28N 51°57' E 004°05'0 0.0
2017-Oct-09 08:58N 51°57' E 004°05'0 0.0
2017-Oct-09 08:25N 51°57' E 004°05'0 0.0
2017-Oct-09 07:58N 51°57' E 004°05'0 0.0
2017-Oct-09 07:25N 51°57' E 004°05'0 0.0
2017-Oct-09 06:58N 51°57' E 004°05'0 0.0
2017-Oct-09 06:28N 51°57' E 004°05'0 0.0
2017-Oct-09 05:55N 51°57' E 004°05'0 0.0
2017-Oct-09 05:22N 51°57' E 004°05'0 0.0
2017-Oct-09 04:58N 51°57' E 004°05'0 0.0
2017-Oct-09 04:28N 51°57' E 004°05'0 0.0
2017-Oct-09 03:58N 51°57' E 004°05'0 0.0
2017-Oct-09 03:25N 51°57' E 004°05'0 0.0
2017-Oct-09 02:58N 51°57' E 004°05'0 0.0
2017-Oct-09 02:28N 51°57' E 004°05'0 0.0
2017-Oct-09 01:58N 51°57' E 004°05'0 0.0
2017-Oct-09 01:28N 51°57' E 004°05'0 0.0
2017-Oct-09 00:55N 51°57' E 004°05'0 0.0
2017-Oct-09 00:28N 51°57' E 004°05'0 0.0
2017-Oct-08 23:58N 51°57' E 004°05'0 0.0
2017-Oct-08 23:25N 51°57' E 004°05'0 0.0
2017-Oct-08 22:55N 51°57' E 004°05'0 0.0
2017-Oct-08 22:28N 51°57' E 004°05'0 0.0
2017-Oct-08 21:58N 51°57' E 004°05'0 0.0
2017-Oct-08 21:28N 51°57' E 004°05'0 0.0
2017-Oct-08 20:58N 51°57' E 004°05'0 0.0
2017-Oct-08 20:25N 51°57' E 004°05'0 0.0
2017-Oct-08 19:58N 51°57' E 004°05'0 0.0
2017-Oct-08 19:28N 51°57' E 004°05'0 0.0
2017-Oct-08 18:58N 51°57' E 004°05'0 0.0
2017-Oct-08 18:28N 51°57' E 004°05'0 0.0
2017-Oct-08 17:58N 51°57' E 004°05'0 0.0
2017-Oct-08 17:28N 51°57' E 004°05'0 0.0
2017-Oct-08 16:58N 51°57' E 004°05'0 0.0
2017-Oct-08 16:28N 51°57' E 004°05'0 0.0
2017-Oct-08 15:55N 51°57' E 004°05'0 0.0
2017-Oct-08 15:28N 51°57' E 004°05'0 0.0
2017-Oct-08 14:58N 51°57' E 004°05'0 0.0
2017-Oct-08 14:28N 51°57' E 004°05'0 0.0
2017-Oct-08 13:58N 51°57' E 004°05'0 0.0
2017-Oct-08 13:28N 51°57' E 004°05'0 0.0
2017-Oct-08 12:58N 51°57' E 004°05'0 0.0
2017-Oct-08 12:28N 51°57' E 004°05'0 0.0
2017-Oct-08 11:55N 51°57' E 004°05'0 0.0
2017-Oct-08 11:28N 51°57' E 004°05'0 0.0
2017-Oct-08 10:55N 51°57' E 004°05'0 0.0
2017-Oct-08 10:25N 51°57' E 004°05'0 0.0
2017-Oct-08 09:55N 51°57' E 004°05'0 0.0
2017-Oct-08 09:25N 51°57' E 004°05'0 0.0
2017-Oct-08 08:55N 51°57' E 004°05'0 0.0
2017-Oct-08 08:25N 51°57' E 004°05'0 0.0
2017-Oct-08 07:58N 51°57' E 004°05'0 0.0
2017-Oct-08 07:28N 51°57' E 004°05'0 0.0
2017-Oct-08 06:58N 51°57' E 004°05'0 0.0
2017-Oct-08 06:28N 51°57' E 004°05'0 0.0
2017-Oct-08 05:55N 51°57' E 004°05'0 0.6
2017-Oct-08 05:30N 51°57' E 004°05'1 2.9
2017-Oct-08 05:00N 51°59' E 004°05'4 8.5
2017-Oct-08 04:30N 52°00' E 003°59'510.2
2017-Oct-08 04:00N 52°01' E 003°51'4 7.3
2017-Oct-08 03:30N 52°01' E 003°45'4 6.9
2017-Oct-08 02:59N 51°59' E 003°40'52 9.1
2017-Oct-07 21:14N 51°36' E 002°25'4 9.1
2017-Oct-07 20:49N 51°33' E 002°20'3 9.2
2017-Oct-07 20:29N 51°31' E 002°16'5 9.0
2017-Oct-07 19:57N 51°27' E 002°12'5 9.6
2017-Oct-07 19:29N 51°23' E 002°11'510.1
2017-Oct-07 19:00N 51°18' E 002°09'510.2
2017-Oct-07 18:30N 51°14' E 002°04'510.6
2017-Oct-07 18:00N 51°11' E 001°57'511.0
2017-Oct-07 17:30N 51°09' E 001°49'611.5
2017-Oct-07 17:00N 51°05' E 001°42'612.0
2017-Oct-07 16:30N 51°01' E 001°35'712.5
2017-Oct-07 15:59N 50°56' E 001°28'  

Dump ship's entire track history